Observation data for Aspermont on 11/19/2019      Previous  Date       Current Mesonet Observations  Soil Data  Daily Summary Page  Observations in Plain Language
KASR 190600Z 21004KT 10/04 A2994 RMK A01 T01030038  RH  065%=      5-min Rain = 0
KASR 190605Z 21003KT 10/04 A2994 RMK A01 T01020037  RH  065%=      5-min Rain = 0
KASR 190610Z 21003KT 10/04 A2994 RMK A01 T00990036  RH  066%=      5-min Rain = 0
KASR 190615Z 21004KT 10/04 A2994 RMK A01 T01000036  RH  065%=      5-min Rain = 0
KASR 190620Z 20005KT 10/04 A2994 RMK A01 T01000036  RH  065%=      5-min Rain = 0
KASR 190625Z 20006KT 10/04 A2994 RMK A01 T00970036  RH  067%=      5-min Rain = 0
KASR 190630Z 20006KT 10/04 A2994 RMK A01 T00950037  RH  068%=      5-min Rain = 0
KASR 190635Z 21006KT 09/04 A2994 RMK A01 T00940037  RH  068%=      5-min Rain = 0
KASR 190640Z 20006KT 10/04 A2993 RMK A01 T00950038  RH  068%=      5-min Rain = 0
KASR 190645Z 21006KT 10/04 A2993 RMK A01 T00960038  RH  068%=      5-min Rain = 0
KASR 190650Z 21005KT 10/04 A2993 RMK A01 T00990039  RH  067%=      5-min Rain = 0
KASR 190655Z 21005KT 10/04 A2993 RMK A01 T01010039  RH  066%=      5-min Rain = 0
KASR 190700Z 21004KT 10/04 A2993 RMK A01 T01020039  RH  066%=      5-min Rain = 0
KASR 190705Z 21004KT 10/04 A2993 RMK A01 T01010039  RH  066%=      5-min Rain = 0
KASR 190710Z 22004KT 10/04 A2994 RMK A01 T00970037  RH  067%=      5-min Rain = 0
KASR 190715Z 21003KT 09/04 A2994 RMK A01 T00940036  RH  068%=      5-min Rain = 0
KASR 190720Z 22003KT 09/04 A2994 RMK A01 T00940036  RH  068%=      5-min Rain = 0
KASR 190725Z 22003KT 09/04 A2994 RMK A01 T00930036  RH  068%=      5-min Rain = 0
KASR 190730Z 22002KT 09/04 A2994 RMK A01 T00930036  RH  068%=      5-min Rain = 0
KASR 190735Z 22002KT 09/03 A2994 RMK A01 T00900034  RH  069%=      5-min Rain = 0
KASR 190740Z 22002KT 09/04 A2993 RMK A01 T00890035  RH  070%=      5-min Rain = 0
KASR 190745Z 23003KT 09/03 A2993 RMK A01 T00850033  RH  071%=      5-min Rain = 0
KASR 190750Z 24002KT 08/03 A2993 RMK A01 T00760028  RH  073%=      5-min Rain = 0
KASR 190755Z 26000KT 07/03 A2993 RMK A01 T00670026  RH  076%=      5-min Rain = 0
KASR 190800Z 00000KT 07/03 A2993 RMK A01 T00720032  RH  077%=      5-min Rain = 0
KASR 190805Z 00000KT 07/03 A2993 RMK A01 T00700029  RH  076%=      5-min Rain = 0
KASR 190810Z 22000KT 07/03 A2993 RMK A01 T00690030  RH  077%=      5-min Rain = 0
KASR 190815Z 22001KT 07/03 A2993 RMK A01 T00690029  RH  077%=      5-min Rain = 0
KASR 190820Z 25001KT 07/03 A2994 RMK A01 T00720032  RH  077%=      5-min Rain = 0
KASR 190825Z 24002KT 07/03 A2994 RMK A01 T00740029  RH  074%=      5-min Rain = 0
KASR 190830Z 22003KT 07/03 A2994 RMK A01 T00700028  RH  076%=      5-min Rain = 0
KASR 190835Z 21004KT 06/03 A2994 RMK A01 T00630026  RH  078%=      5-min Rain = 0
KASR 190840Z 21005KT 06/03 A2993 RMK A01 T00620026  RH  079%=      5-min Rain = 0
KASR 190845Z 21005KT 07/03 A2993 RMK A01 T00670030  RH  078%=      5-min Rain = 0
KASR 190850Z 21006KT 08/03 A2993 RMK A01 T00810032  RH  072%=      5-min Rain = 0
KASR 190855Z 21005KT 09/03 A2993 RMK A01 T00880031  RH  069%=      5-min Rain = 0
KASR 190900Z 22005KT 09/03 A2994 RMK A01 T00910031  RH  067%=      5-min Rain = 0
KASR 190905Z 22003KT 09/03 A2994 RMK A01 T00850027  RH  068%=      5-min Rain = 0
KASR 190910Z 22003KT 08/03 A2994 RMK A01 T00760026  RH  071%=      5-min Rain = 0
KASR 190915Z 22002KT 07/03 A2994 RMK A01 T00730028  RH  074%=      5-min Rain = 0
KASR 190920Z 22001KT 07/03 A2994 RMK A01 T00730027  RH  074%=      5-min Rain = 0
KASR 190925Z 22002KT 07/03 A2994 RMK A01 T00700027  RH  075%=      5-min Rain = 0
KASR 190930Z 24002KT 06/02 A2994 RMK A01 T00640024  RH  077%=      5-min Rain = 0
KASR 190935Z 27002KT 06/03 A2994 RMK A01 T00640027  RH  078%=      5-min Rain = 0
KASR 190940Z 28002KT 06/02 A2994 RMK A01 T00620023  RH  077%=      5-min Rain = 0
KASR 190945Z 31003KT 05/02 A2994 RMK A01 T00510017  RH  080%=      5-min Rain = 0
KASR 190950Z 31004KT 05/02 A2994 RMK A01 T00520021  RH  082%=      5-min Rain = 0
KASR 190955Z 31004KT 05/02 A2994 RMK A01 T00520022  RH  082%=      5-min Rain = 0
KASR 191000Z 29003KT 06/02 A2994 RMK A01 T00550024  RH  082%=      5-min Rain = 0
KASR 191005Z 25004KT 06/03 A2994 RMK A01 T00580026  RH  081%=      5-min Rain = 0
KASR 191010Z 24004KT 06/03 A2994 RMK A01 T00630027  RH  079%=      5-min Rain = 0
KASR 191015Z 23005KT 06/03 A2994 RMK A01 T00630028  RH  079%=      5-min Rain = 0
KASR 191020Z 23005KT 07/03 A2994 RMK A01 T00680030  RH  077%=      5-min Rain = 0
KASR 191025Z 23005KT 07/03 A2994 RMK A01 T00720029  RH  075%=      5-min Rain = 0
KASR 191030Z 24005KT 07/03 A2994 RMK A01 T00730028  RH  074%=      5-min Rain = 0
KASR 191035Z 25005KT 07/03 A2994 RMK A01 T00700027  RH  075%=      5-min Rain = 0
KASR 191040Z 25004KT 07/03 A2994 RMK A01 T00660025  RH  076%=      5-min Rain = 0
KASR 191045Z 25005KT 06/03 A2994 RMK A01 T00620025  RH  078%=      5-min Rain = 0
KASR 191050Z 25005KT 06/03 A2994 RMK A01 T00620025  RH  078%=      5-min Rain = 0
KASR 191055Z 26005KT 07/03 A2994 RMK A01 T00650026  RH  077%=      5-min Rain = 0
KASR 191100Z 26004KT 07/03 A2994 RMK A01 T00670026  RH  076%=      5-min Rain = 0
KASR 191105Z 28003KT 07/03 A2994 RMK A01 T00670025  RH  075%=      5-min Rain = 0
KASR 191110Z 29003KT 07/02 A2994 RMK A01 T00650024  RH  076%=      5-min Rain = 0
KASR 191115Z 28004KT 06/02 A2994 RMK A01 T00620023  RH  077%=      5-min Rain = 0
KASR 191120Z 27004KT 06/02 A2994 RMK A01 T00610023  RH  078%=      5-min Rain = 0
KASR 191125Z 26004KT 06/02 A2994 RMK A01 T00610023  RH  078%=      5-min Rain = 0
KASR 191130Z 26004KT 06/02 A2994 RMK A01 T00600022  RH  078%=      5-min Rain = 0
KASR 191135Z 26004KT 06/02 A2994 RMK A01 T00580022  RH  079%=      5-min Rain = 0
KASR 191140Z 26003KT 06/02 A2994 RMK A01 T00570021  RH  079%=      5-min Rain = 0
KASR 191145Z 26003KT 06/02 A2994 RMK A01 T00560022  RH  080%=      5-min Rain = 0
KASR 191150Z 25004KT 06/02 A2994 RMK A01 T00590022  RH  078%=      5-min Rain = 0
KASR 191155Z 24003KT 06/02 A2994 RMK A01 T00570020  RH  078%=      5-min Rain = 0
KASR 191200Z 25003KT 05/02 A2994 RMK A01 T00530019  RH  080%=      5-min Rain = 0
KASR 191205Z 25002KT 05/02 A2994 RMK A01 T00470015  RH  081%=      5-min Rain = 0
KASR 191210Z 23003KT 04/02 A2995 RMK A01 T00440017  RH  084%=      5-min Rain = 0
KASR 191215Z 25003KT 05/02 A2995 RMK A01 T00480019  RH  082%=      5-min Rain = 0
KASR 191220Z 25003KT 05/02 A2995 RMK A01 T00490018  RH  081%=      5-min Rain = 0
KASR 191225Z 24003KT 05/02 A2995 RMK A01 T00500019  RH  081%=      5-min Rain = 0
KASR 191230Z 23003KT 05/02 A2995 RMK A01 T00490017  RH  081%=      5-min Rain = 0
KASR 191235Z 22004KT 05/02 A2995 RMK A01 T00500019  RH  081%=      5-min Rain = 0
KASR 191240Z 23004KT 06/02 A2995 RMK A01 T00560022  RH  080%=      5-min Rain = 0
KASR 191245Z 23004KT 06/02 A2995 RMK A01 T00570021  RH  079%=      5-min Rain = 0
KASR 191250Z 23004KT 06/02 A2996 RMK A01 T00600021  RH  077%=      5-min Rain = 0
KASR 191255Z 23004KT 06/02 A2996 RMK A01 T00620020  RH  076%=      5-min Rain = 0
KASR 191300Z 25004KT 06/02 A2996 RMK A01 T00580018  RH  076%=      5-min Rain = 0
KASR 191305Z 25003KT 05/02 A2996 RMK A01 T00540018  RH  078%=      5-min Rain = 0
KASR 191310Z 24003KT 05/02 A2996 RMK A01 T00530019  RH  080%=      5-min Rain = 0
KASR 191315Z 22004KT 06/02 A2996 RMK A01 T00560020  RH  078%=      5-min Rain = 0
KASR 191320Z 22005KT 05/02 A2996 RMK A01 T00540020  RH  080%=      5-min Rain = 0
KASR 191325Z 22004KT 05/02 A2996 RMK A01 T00530020  RH  080%=      5-min Rain = 0
KASR 191330Z 21003KT 05/02 A2996 RMK A01 T00540020  RH  080%=      5-min Rain = 0
KASR 191335Z 19003KT 06/02 A2997 RMK A01 T00560020  RH  078%=      5-min Rain = 0
KASR 191340Z 18002KT 06/02 A2997 RMK A01 T00610021  RH  077%=      5-min Rain = 0
KASR 191345Z 20002KT 07/02 A2997 RMK A01 T00670022  RH  074%=      5-min Rain = 0
KASR 191350Z 20002KT 07/02 A2997 RMK A01 T00700022  RH  072%=      5-min Rain = 0
KASR 191355Z 19003KT 07/03 A2997 RMK A01 T00740026  RH  072%=      5-min Rain = 0
KASR 191400Z 18003KT 08/03 A2997 RMK A01 T00760029  RH  073%=      5-min Rain = 0
KASR 191405Z 16003KT 08/03 A2997 RMK A01 T00760032  RH  074%=      5-min Rain = 0
KASR 191410Z 16003KT 08/04 A2997 RMK A01 T00770035  RH  075%=      5-min Rain = 0
KASR 191415Z 17004KT 08/04 A2998 RMK A01 T00780039  RH  077%=      5-min Rain = 0
KASR 191420Z 17004KT 08/04 A2998 RMK A01 T00800042  RH  078%=      5-min Rain = 0
KASR 191425Z 17005KT 09/04 A2998 RMK A01 T00860043  RH  076%=      5-min Rain = 0
KASR 191430Z 17003KT 09/05 A2998 RMK A01 T00920046  RH  074%=      5-min Rain = 0
KASR 191435Z 17003KT 10/05 A2998 RMK A01 T01000049  RH  071%=      5-min Rain = 0
KASR 191440Z 16001KT 11/05 A2998 RMK A01 T01070050  RH  069%=      5-min Rain = 0
KASR 191445Z 18001KT 11/05 A2998 RMK A01 T01140054  RH  068%=      5-min Rain = 0
KASR 191450Z 18002KT 12/05 A2997 RMK A01 T01170053  RH  066%=      5-min Rain = 0
KASR 191455Z 18002KT 12/06 A2997 RMK A01 T01210056  RH  065%=      5-min Rain = 0
KASR 191500Z 19002KT 13/06 A2997 RMK A01 T01290058  RH  063%=      5-min Rain = 0
KASR 191505Z 20003KT 13/05 A2997 RMK A01 T01340054  RH  059%=      5-min Rain = 0
KASR 191510Z 19003KT 14/05 A2997 RMK A01 T01350053  RH  058%=      5-min Rain = 0
KASR 191515Z 19004KT 14/05 A2997 RMK A01 T01390049  RH  055%=      5-min Rain = 0
KASR 191520Z 19004KT 14/05 A2997 RMK A01 T01420049  RH  054%=      5-min Rain = 0
KASR 191525Z 20005KT 15/05 A2997 RMK A01 T01490049  RH  052%=      5-min Rain = 0
KASR 191530Z 21005KT 16/05 A2997 RMK A01 T01550048  RH  050%=      5-min Rain = 0
KASR 191535Z 20005KT 16/05 A2997 RMK A01 T01580048  RH  049%=      5-min Rain = 0
KASR 191540Z 21006KT 16/05 A2997 RMK A01 T01600049  RH  048%=      5-min Rain = 0
KASR 191545Z 21008KT 16/05 A2997 RMK A01 T01600049  RH  048%=      5-min Rain = 0
KASR 191550Z 20007KT 16/05 A2997 RMK A01 T01630054  RH  049%=      5-min Rain = 0
KASR 191555Z 21007KT 17/05 A2997 RMK A01 T01660054  RH  048%=      5-min Rain = 0
KASR 191600Z 20007KT 17/06 A2997 RMK A01 T01690055  RH  047%=      5-min Rain = 0
KASR 191605Z 21008KT 17/05 A2997 RMK A01 T01650053  RH  048%=      5-min Rain = 0
KASR 191610Z 20006KT 17/06 A2997 RMK A01 T01690057  RH  048%=      5-min Rain = 0
KASR 191615Z 21006KT 18/06 A2997 RMK A01 T01790058  RH  046%=      5-min Rain = 0
KASR 191620Z 22006KT 18/06 A2997 RMK A01 T01790058  RH  046%=      5-min Rain = 0
KASR 191625Z 22008KT 18/06 A2996 RMK A01 T01830059  RH  045%=      5-min Rain = 0
KASR 191630Z 21009KT 19/06 A2996 RMK A01 T01860060  RH  044%=      5-min Rain = 0
KASR 191635Z 21010KT 19/06 A2996 RMK A01 T01880061  RH  044%=      5-min Rain = 0
KASR 191640Z 21011KT 19/06 A2996 RMK A01 T01940062  RH  043%=      5-min Rain = 0
KASR 191645Z 21011KT 19/06 A2996 RMK A01 T01940063  RH  043%=      5-min Rain = 0
KASR 191650Z 21010KT 20/06 A2996 RMK A01 T01950064  RH  043%=      5-min Rain = 0
KASR 191655Z 21009KT 20/07 A2996 RMK A01 T01960065  RH  043%=      5-min Rain = 0
KASR 191700Z 20010KT 20/06 A2996 RMK A01 T01950064  RH  043%=      5-min Rain = 0
KASR 191705Z 21010KT 20/07 A2996 RMK A01 T01970066  RH  043%=      5-min Rain = 0
KASR 191710Z 21011KT 20/07 A2996 RMK A01 T02010067  RH  042%=      5-min Rain = 0
KASR 191715Z 21010KT 20/07 A2996 RMK A01 T02020068  RH  042%=      5-min Rain = 0
KASR 191720Z 21010KT 20/07 A2996 RMK A01 T02030068  RH  042%=      5-min Rain = 0
KASR 191725Z 21008KT 21/07 A2996 RMK A01 T02080071  RH  042%=      5-min Rain = 0
KASR 191730Z 21009KT 21/07 A2995 RMK A01 T02100070  RH  041%=      5-min Rain = 0
KASR 191735Z 20007KT 21/07 A2995 RMK A01 T02110071  RH  041%=      5-min Rain = 0
KASR 191740Z 21007KT 22/07 A2995 RMK A01 T02150072  RH  040%=      5-min Rain = 0
KASR 191745Z 22006KT 21/07 A2994 RMK A01 T02130072  RH  040%=      5-min Rain = 0
KASR 191750Z 21006KT 22/07 A2994 RMK A01 T02180073  RH  040%=      5-min Rain = 0
KASR 191755Z 21007KT 22/07 A2994 RMK A01 T02200073  RH  039%=      5-min Rain = 0
KASR 191800Z 21007KT 22/07 A2994 RMK A01 T02220074  RH  039%=      5-min Rain = 0
KASR 191805Z 18009KT 22/07 A2993 RMK A01 T02220073  RH  039%=      5-min Rain = 0
KASR 191810Z 19008KT 22/07 A2993 RMK A01 T02210074  RH  039%=      5-min Rain = 0
KASR 191815Z 19008KT 23/08 A2993 RMK A01 T02260075  RH  038%=      5-min Rain = 0
KASR 191820Z 18007KT 23/08 A2992 RMK A01 T02330075  RH  037%=      5-min Rain = 0
KASR 191825Z 18007KT 23/07 A2992 RMK A01 T02290074  RH  037%=      5-min Rain = 0
KASR 191830Z 19007KT 23/07 A2991 RMK A01 T02320074  RH  037%=      5-min Rain = 0
KASR 191835Z 18008KT 24/08 A2991 RMK A01 T02360075  RH  036%=      5-min Rain = 0
KASR 191840Z 18010KT 24/08 A299 RMK A01 T02380075  RH  036%=      5-min Rain = 0
KASR 191845Z 19009KT 24/07 A299 RMK A01 T02390074  RH  035%=      5-min Rain = 0
KASR 191850Z 17008KT 24/08 A299 RMK A01 T02440076  RH  035%=      5-min Rain = 0
KASR 191855Z 17007G12KT 24/08 A2989 RMK A01 T02440077  RH  035%=      5-min Rain = 0
KASR 191900Z 17008KT 24/08 A2989 RMK A01 T02440076  RH  035%=      5-min Rain = 0
KASR 191905Z 16006G12KT 25/08 A2989 RMK A01 T02460076  RH  034%=      5-min Rain = 0
KASR 191910Z 16008KT 25/08 A2988 RMK A01 T02520078  RH  033%=      5-min Rain = 0
KASR 191915Z 16010G15KT 25/08 A2988 RMK A01 T02500078  RH  034%=      5-min Rain = 0
KASR 191920Z 15008KT 25/08 A2988 RMK A01 T02510078  RH  034%=      5-min Rain = 0
KASR 191925Z 16009G15KT 25/08 A2987 RMK A01 T02540078  RH  033%=      5-min Rain = 0
KASR 191930Z 16011KT 25/08 A2987 RMK A01 T02540077  RH  033%=      5-min Rain = 0
KASR 191935Z 16011G16KT 26/08 A2987 RMK A01 T02560076  RH  032%=      5-min Rain = 0
KASR 191940Z 16011KT 26/08 A2987 RMK A01 T02580077  RH  032%=      5-min Rain = 0
KASR 191945Z 15009G14KT 26/08 A2987 RMK A01 T02580077  RH  032%=      5-min Rain = 0
KASR 191950Z 16011KT 26/07 A2987 RMK A01 T02590073  RH  031%=      5-min Rain = 0
KASR 191955Z 17010G17KT 26/07 A2986 RMK A01 T02620072  RH  030%=      5-min Rain = 0
KASR 192000Z 16009KT 26/07 A2986 RMK A01 T02630070  RH  030%=      5-min Rain = 0
KASR 192005Z 16012G17KT 26/06 A2985 RMK A01 T02630064  RH  028%=      5-min Rain = 0
KASR 192010Z 14009G16KT 27/06 A2985 RMK A01 T02670064  RH  028%=      5-min Rain = 0
KASR 192015Z 17011G18KT 27/05 A2985 RMK A01 T02690053  RH  025%=      5-min Rain = 0
KASR 192020Z 17013KT 27/05 A2985 RMK A01 T02700046  RH  024%=      5-min Rain = 0
KASR 192025Z 18012G18KT 27/04 A2985 RMK A01 T02700044  RH  024%=      5-min Rain = 0
KASR 192030Z 18011KT 27/04 A2984 RMK A01 T02710043  RH  023%=      5-min Rain = 0
KASR 192035Z 17012G17KT 27/04 A2984 RMK A01 T02720042  RH  023%=      5-min Rain = 0
KASR 192040Z 17013G18KT 27/05 A2984 RMK A01 T02700045  RH  024%=      5-min Rain = 0
KASR 192045Z 19014G19KT 27/04 A2984 RMK A01 T02700042  RH  023%=      5-min Rain = 0
KASR 192050Z 17013KT 27/04 A2983 RMK A01 T02700042  RH  023%=      5-min Rain = 0
KASR 192055Z 16011KT 27/05 A2983 RMK A01 T02710045  RH  024%=      5-min Rain = 0
KASR 192100Z 17010KT 27/04 A2983 RMK A01 T02730044  RH  023%=      5-min Rain = 0
KASR 192105Z 17010KT 27/04 A2983 RMK A01 T02730043  RH  023%=      5-min Rain = 0
KASR 192110Z 17013G19KT 28/04 A2983 RMK A01 T02750036  RH  022%=      5-min Rain = 0
KASR 192115Z 17011G16KT 27/03 A2982 RMK A01 T02710032  RH  022%=      5-min Rain = 0
KASR 192120Z 17011G16KT 27/03 A2982 RMK A01 T02720033  RH  022%=      5-min Rain = 0
KASR 192125Z 16012G19KT 27/03 A2982 RMK A01 T02720029  RH  021%=      5-min Rain = 0
KASR 192130Z 16011G16KT 27/03 A2982 RMK A01 T02720028  RH  021%=      5-min Rain = 0
KASR 192135Z 16012G17KT 27/03 A2982 RMK A01 T02710025  RH  021%=      5-min Rain = 0
KASR 192140Z 17012KT 27/03 A2982 RMK A01 T02690026  RH  021%=      5-min Rain = 0
KASR 192145Z 17010G15KT 27/03 A2982 RMK A01 T02710028  RH  021%=      5-min Rain = 0
KASR 192150Z 16013KT 27/03 A2982 RMK A01 T02690028  RH  021%=      5-min Rain = 0
KASR 192155Z 17010G15KT 27/03 A2982 RMK A01 T02680029  RH  022%=      5-min Rain = 0
KASR 192200Z 17012G17KT 27/03 A2981 RMK A01 T02680031  RH  022%=      5-min Rain = 0
KASR 192205Z 16012G17KT 27/03 A2981 RMK A01 T02660032  RH  022%=      5-min Rain = 0
KASR 192210Z 17012KT 27/03 A2981 RMK A01 T02650034  RH  023%=      5-min Rain = 0
KASR 192215Z 16011KT 26/04 A2981 RMK A01 T02640035  RH  023%=      5-min Rain = 0
KASR 192220Z 16009KT 26/04 A2981 RMK A01 T02630037  RH  024%=      5-min Rain = 0
KASR 192225Z 17012KT 26/04 A2981 RMK A01 T02590039  RH  024%=      5-min Rain = 0
KASR 192230Z 16011G16KT 25/04 A2981 RMK A01 T02540041  RH  026%=      5-min Rain = 0
KASR 192235Z 17008G15KT 25/05 A2981 RMK A01 T02510046  RH  027%=      5-min Rain = 0
KASR 192240Z 16008KT 25/05 A2981 RMK A01 T02490048  RH  028%=      5-min Rain = 0
KASR 192245Z 15009G16KT 25/05 A2981 RMK A01 T02480048  RH  028%=      5-min Rain = 0
KASR 192250Z 15008G13KT 25/05 A2981 RMK A01 T02460048  RH  028%=      5-min Rain = 0
KASR 192255Z 15008KT 24/05 A2981 RMK A01 T02440048  RH  028%=      5-min Rain = 0
KASR 192300Z 14008KT 24/05 A2981 RMK A01 T02410049  RH  029%=      5-min Rain = 0
KASR 192305Z 14008KT 24/05 A2981 RMK A01 T02370050  RH  030%=      5-min Rain = 0
KASR 192310Z 14008KT 23/05 A2981 RMK A01 T02330053  RH  032%=      5-min Rain = 0
KASR 192315Z 14008KT 23/06 A2981 RMK A01 T02290056  RH  033%=      5-min Rain = 0
KASR 192320Z 14007KT 23/06 A2981 RMK A01 T02270059  RH  034%=      5-min Rain = 0
KASR 192325Z 14007KT 22/06 A2982 RMK A01 T02230062  RH  036%=      5-min Rain = 0
KASR 192330Z 14007KT 22/06 A2981 RMK A01 T02190064  RH  037%=      5-min Rain = 0
KASR 192335Z 13007KT 22/07 A2981 RMK A01 T02150065  RH  038%=      5-min Rain = 0
KASR 192340Z 13008KT 21/07 A2981 RMK A01 T02110067  RH  040%=      5-min Rain = 0
KASR 192345Z 13008KT 21/07 A2981 RMK A01 T02090069  RH  041%=      5-min Rain = 0
KASR 192350Z 13008KT 21/07 A2981 RMK A01 T02060070  RH  042%=      5-min Rain = 0
KASR 192355Z 14008KT 21/07 A2981 RMK A01 T02060072  RH  042%=      5-min Rain = 0
KASR 200000Z 14009KT 21/07 A2981 RMK A01 T02050072  RH  043%=      5-min Rain = 0
KASR 200005Z 14008KT 20/07 A2981 RMK A01 T02030073  RH  043%=      5-min Rain = 0
KASR 200010Z 14008KT 20/07 A2981 RMK A01 T02010073  RH  044%=      5-min Rain = 0
KASR 200015Z 14008KT 20/07 A2981 RMK A01 T02000072  RH  044%=      5-min Rain = 0
KASR 200020Z 14008KT 20/07 A2981 RMK A01 T01980072  RH  045%=      5-min Rain = 0
KASR 200025Z 14007KT 20/07 A2981 RMK A01 T01960072  RH  045%=      5-min Rain = 0
KASR 200030Z 14007KT 20/07 A2981 RMK A01 T01960071  RH  045%=      5-min Rain = 0
KASR 200035Z 14007KT 19/07 A2981 RMK A01 T01940071  RH  045%=      5-min Rain = 0
KASR 200040Z 14008KT 19/07 A2981 RMK A01 T01930071  RH  046%=      5-min Rain = 0
KASR 200045Z 13008KT 19/07 A2981 RMK A01 T01920071  RH  046%=      5-min Rain = 0
KASR 200050Z 13008KT 19/07 A2981 RMK A01 T01900070  RH  046%=      5-min Rain = 0
KASR 200055Z 13008KT 19/07 A2981 RMK A01 T01870069  RH  047%=      5-min Rain = 0
KASR 200100Z 14008KT 19/07 A2981 RMK A01 T01860068  RH  047%=      5-min Rain = 0
KASR 200105Z 14008KT 19/07 A2981 RMK A01 T01850068  RH  047%=      5-min Rain = 0
KASR 200110Z 14008KT 18/07 A2981 RMK A01 T01840067  RH  047%=      5-min Rain = 0
KASR 200115Z 14008KT 18/07 A2981 RMK A01 T01840067  RH  047%=      5-min Rain = 0
KASR 200120Z 14007KT 18/07 A2981 RMK A01 T01820066  RH  047%=      5-min Rain = 0
KASR 200125Z 14008KT 18/07 A2981 RMK A01 T01800066  RH  048%=      5-min Rain = 0
KASR 200130Z 14008KT 18/07 A2981 RMK A01 T01800065  RH  048%=      5-min Rain = 0
KASR 200135Z 14009KT 18/07 A2981 RMK A01 T01810065  RH  047%=      5-min Rain = 0
KASR 200140Z 14009KT 18/07 A2981 RMK A01 T01820065  RH  047%=      5-min Rain = 0
KASR 200145Z 14009KT 18/07 A2981 RMK A01 T01810065  RH  047%=      5-min Rain = 0
KASR 200150Z 15009KT 18/07 A2981 RMK A01 T01810065  RH  047%=      5-min Rain = 0
KASR 200155Z 14009KT 18/07 A2981 RMK A01 T01810065  RH  047%=      5-min Rain = 0
KASR 200200Z 14010KT 18/06 A2981 RMK A01 T01810064  RH  047%=      5-min Rain = 0
KASR 200205Z 14010KT 18/06 A2981 RMK A01 T01820064  RH  047%=      5-min Rain = 0
KASR 200210Z 15010KT 18/06 A2981 RMK A01 T01810064  RH  047%=      5-min Rain = 0
KASR 200215Z 15009KT 18/07 A2981 RMK A01 T01810065  RH  047%=      5-min Rain = 0
KASR 200220Z 15010KT 18/07 A2981 RMK A01 T01820065  RH  047%=      5-min Rain = 0
KASR 200225Z 15010KT 18/07 A2982 RMK A01 T01820066  RH  047%=      5-min Rain = 0
KASR 200230Z 15010KT 18/07 A2982 RMK A01 T01810067  RH  048%=      5-min Rain = 0
KASR 200235Z 15010KT 18/07 A2982 RMK A01 T01800068  RH  049%=      5-min Rain = 0
KASR 200240Z 15009KT 18/07 A2982 RMK A01 T01790069  RH  049%=      5-min Rain = 0
KASR 200245Z 15009KT 18/07 A2982 RMK A01 T01770070  RH  050%=      5-min Rain = 0
KASR 200250Z 15009KT 18/07 A2982 RMK A01 T01760070  RH  051%=      5-min Rain = 0
KASR 200255Z 15010KT 17/07 A2982 RMK A01 T01740071  RH  052%=      5-min Rain = 0
KASR 200300Z 15009KT 17/07 A2982 RMK A01 T01730072  RH  052%=      5-min Rain = 0
KASR 200305Z 15009KT 17/07 A2982 RMK A01 T01720072  RH  053%=      5-min Rain = 0
KASR 200310Z 15008KT 17/07 A2982 RMK A01 T01700073  RH  053%=      5-min Rain = 0
KASR 200315Z 16009KT 17/07 A2982 RMK A01 T01690074  RH  054%=      5-min Rain = 0
KASR 200320Z 16009KT 17/07 A2982 RMK A01 T01680074  RH  055%=      5-min Rain = 0
KASR 200325Z 16009KT 17/08 A2982 RMK A01 T01680075  RH  055%=      5-min Rain = 0
KASR 200330Z 16009KT 17/08 A2982 RMK A01 T01680076  RH  055%=      5-min Rain = 0
KASR 200335Z 16009KT 17/08 A2982 RMK A01 T01660076  RH  056%=      5-min Rain = 0
KASR 200340Z 16008KT 16/08 A2982 RMK A01 T01640076  RH  057%=      5-min Rain = 0
KASR 200345Z 16008KT 16/08 A2982 RMK A01 T01620076  RH  058%=      5-min Rain = 0
KASR 200350Z 16008KT 16/08 A2982 RMK A01 T01600076  RH  059%=      5-min Rain = 0
KASR 200355Z 16008KT 16/08 A2982 RMK A01 T01580076  RH  059%=      5-min Rain = 0
KASR 200400Z 17008KT 16/08 A2982 RMK A01 T01570077  RH  060%=      5-min Rain = 0
KASR 200405Z 16007KT 16/08 A2982 RMK A01 T01570077  RH  060%=      5-min Rain = 0
KASR 200410Z 17007KT 16/08 A2983 RMK A01 T01560077  RH  060%=      5-min Rain = 0
KASR 200415Z 17007KT 16/08 A2983 RMK A01 T01550078  RH  061%=      5-min Rain = 0
KASR 200420Z 17007KT 15/08 A2983 RMK A01 T01540078  RH  062%=      5-min Rain = 0
KASR 200425Z 17008KT 15/08 A2983 RMK A01 T01540079  RH  062%=      5-min Rain = 0
KASR 200430Z 16008KT 16/08 A2983 RMK A01 T01550079  RH  061%=      5-min Rain = 0
KASR 200435Z 16008KT 15/08 A2982 RMK A01 T01530079  RH  062%=      5-min Rain = 0
KASR 200440Z 16007KT 15/08 A2982 RMK A01 T01510079  RH  063%=      5-min Rain = 0
KASR 200445Z 16007KT 15/08 A2982 RMK A01 T01490078  RH  064%=      5-min Rain = 0
KASR 200450Z 15007KT 15/08 A2982 RMK A01 T01450078  RH  065%=      5-min Rain = 0
KASR 200455Z 15008KT 14/08 A2982 RMK A01 T01440078  RH  065%=      5-min Rain = 0
KASR 200500Z 14009KT 15/08 A2982 RMK A01 T01450078  RH  065%=      5-min Rain = 0
KASR 200505Z 15008KT 15/08 A2982 RMK A01 T01460078  RH  065%=      5-min Rain = 0
KASR 200510Z 15006KT 15/08 A2982 RMK A01 T01460078  RH  065%=      5-min Rain = 0
KASR 200515Z 16006KT 15/08 A2982 RMK A01 T01450079  RH  065%=      5-min Rain = 0
KASR 200520Z 17006KT 15/08 A2983 RMK A01 T01460080  RH  065%=      5-min Rain = 0
KASR 200525Z 16008KT 15/08 A2982 RMK A01 T01520082  RH  064%=      5-min Rain = 0
KASR 200530Z 16009KT 16/08 A2982 RMK A01 T01570083  RH  062%=      5-min Rain = 0
KASR 200535Z 16010KT 16/08 A2982 RMK A01 T01580084  RH  062%=      5-min Rain = 0
KASR 200540Z 16010KT 16/08 A2982 RMK A01 T01570084  RH  062%=      5-min Rain = 0
KASR 200545Z 16009KT 16/08 A2982 RMK A01 T01560084  RH  063%=      5-min Rain = 0
KASR 200550Z 16009KT 15/08 A2982 RMK A01 T01540084  RH  064%=      5-min Rain = 0
KASR 200555Z 17008KT 15/08 A2982 RMK A01 T01530084  RH  064%=      5-min Rain = 0

Page generated in 0.0389 seconds.